Time;durP1;ratioP1;P1;durP2;ratioP2;P2;SDS_P1;SDS_P2;PMS_P1;PMS_P2;Temp;Humidity;BMP_temperature;BMP_pressure;BME280_temperature;BME280_humidity;BME280_pressure;Samples;Min_cycle;Max_cycle;Signal;HPM_P1;HPM_P2
2023/04/14 00:00:12;;;;;;;15.07;14.03;;;;;;;3.89;100.00;100974.44;5053157;28;20466;-48
2023/04/14 00:02:41;;;;;;;13.87;12.97;;;;;;;3.88;100.00;100970.16;5054754;28;20439;-52
2023/04/14 00:05:09;;;;;;;13.73;12.63;;;;;;;3.86;100.00;100978.22;5054826;28;20522;-52
2023/04/14 00:07:37;;;;;;;14.47;13.17;;;;;;;3.83;100.00;100977.66;5054781;28;20469;-48
2023/04/14 00:10:05;;;;;;;13.27;12.27;;;;;;;3.83;100.00;100981.16;5054840;28;20427;-54
2023/04/14 00:12:33;;;;;;;14.53;13.60;;;;;;;3.83;100.00;100989.06;5054955;28;20458;-55
2023/04/14 00:15:01;;;;;;;13.80;12.97;;;;;;;3.83;100.00;100998.78;5054989;28;20431;-47
2023/04/14 00:17:28;;;;;;;14.00;13.10;;;;;;;3.77;100.00;100999.34;5051227;28;21004;-51
2023/04/14 00:19:58;;;;;;;13.53;12.73;;;;;;;3.74;100.00;100991.75;5054916;28;20905;-54
2023/04/14 00:22:26;;;;;;;14.07;12.83;;;;;;;3.69;100.00;100992.19;5054207;28;20442;-54
2023/04/14 00:24:54;;;;;;;14.33;13.33;;;;;;;3.66;100.00;101003.03;5054542;28;20543;-52
2023/04/14 00:27:21;;;;;;;14.43;13.30;;;;;;;3.63;100.00;101007.75;5054208;28;20461;-52
2023/04/14 00:29:49;;;;;;;13.50;12.50;;;;;;;3.57;100.00;101008.34;5054810;28;20427;-54
2023/04/14 00:32:16;;;;;;;14.70;13.60;;;;;;;3.55;100.00;101005.88;5054158;28;20964;-51
2023/04/14 00:34:44;;;;;;;14.43;13.60;;;;;;;3.54;100.00;101006.84;5054162;28;20530;-54
2023/04/14 00:37:13;;;;;;;13.70;13.00;;;;;;;3.50;100.00;101013.34;5053896;28;20451;-52
2023/04/14 00:39:41;;;;;;;14.17;13.13;;;;;;;3.45;100.00;101007.69;5054339;28;20475;-52
2023/04/14 00:42:09;;;;;;;13.90;12.90;;;;;;;3.43;100.00;101011.47;5054011;28;20506;-52
2023/04/14 00:44:37;;;;;;;14.30;12.93;;;;;;;3.41;100.00;101008.94;5054249;28;20435;-50
2023/04/14 00:47:05;;;;;;;14.87;14.00;;;;;;;3.43;100.00;101000.91;5042071;28;20456;-54
2023/04/14 00:49:33;;;;;;;14.30;12.90;;;;;;;3.47;100.00;101012.81;5053353;28;20456;-53
2023/04/14 00:52:01;;;;;;;16.93;15.63;;;;;;;3.53;100.00;101014.88;5053969;28;20427;-49
2023/04/14 00:54:32;;;;;;;16.70;15.40;;;;;;;3.51;100.00;101015.03;5053939;28;20939;-46
2023/04/14 00:57:00;;;;;;;16.60;15.00;;;;;;;3.58;100.00;101028.47;5053498;28;20443;-49
2023/04/14 00:59:28;;;;;;;14.20;13.37;;;;;;;3.55;100.00;101023.50;5054087;28;20437;-48
2023/04/14 01:01:57;;;;;;;15.03;14.20;;;;;;;3.54;100.00;101020.00;5053566;28;20557;-47
2023/04/14 01:04:25;;;;;;;16.37;15.23;;;;;;;3.54;100.00;101019.19;5053879;28;20431;-49
2023/04/14 01:07:03;;;;;;;16.23;14.83;;;;;;;3.53;100.00;101031.53;5053598;28;20483;-53
2023/04/14 01:09:32;;;;;;;14.90;14.00;;;;;;;3.45;100.00;101039.34;5054051;28;20798;-47
2023/04/14 01:12:09;;;;;;;14.73;13.93;;;;;;;3.37;100.00;101035.75;5053406;28;20944;-49
2023/04/14 01:14:42;;;;;;;16.47;15.20;;;;;;;3.27;100.00;101038.41;5053892;28;20908;-49
2023/04/14 01:17:17;;;;;;;16.70;15.43;;;;;;;3.23;100.00;101042.28;5053695;28;20513;-47
2023/04/14 01:20:01;;;;;;;15.47;14.37;;;;;;;3.18;100.00;101052.44;5041243;28;20986;-48
2023/04/14 01:22:32;;;;;;;15.40;14.37;;;;;;;3.16;100.00;101049.13;5053438;28;20419;-51
2023/04/14 01:25:38;;;;;;;15.70;14.40;;;;;;;3.09;100.00;101050.66;5053464;28;20488;-49
2023/04/14 01:28:20;;;;;;;16.10;15.00;;;;;;;3.01;100.00;101055.78;5037589;28;20455;-53
2023/04/14 01:31:04;;;;;;;15.87;14.67;;;;;;;2.92;100.00;101057.47;5053437;28;20453;-49
2023/04/14 01:33:38;;;;;;;15.30;14.40;;;;;;;2.83;100.00;101050.41;5053123;28;20798;-50
2023/04/14 01:36:10;;;;;;;15.70;14.57;;;;;;;2.79;100.00;101046.38;5053293;28;20428;-50
2023/04/14 01:38:39;;;;;;;15.60;14.40;;;;;;;2.73;100.00;101045.13;5052519;28;20466;-48
2023/04/14 01:41:10;;;;;;;15.40;14.10;;;;;;;2.67;100.00;101037.78;5052963;28;20471;-48
2023/04/14 01:43:42;;;;;;;15.77;14.67;;;;;;;2.63;100.00;101041.66;5052985;28;20431;-49
2023/04/14 01:46:14;;;;;;;16.70;15.63;;;;;;;2.61;100.00;101048.88;5053225;28;20426;-47
2023/04/14 01:48:45;;;;;;;15.43;14.33;;;;;;;2.58;100.00;101049.16;5052350;28;20463;-51
2023/04/14 01:51:17;;;;;;;15.70;14.70;;;;;;;2.55;100.00;101056.47;5052661;28;20427;-48
2023/04/14 01:53:45;;;;;;;15.70;14.57;;;;;;;2.52;100.00;101056.75;5052569;28;20436;-52
2023/04/14 01:56:16;;;;;;;15.20;14.30;;;;;;;2.48;100.00;101050.94;5052467;28;20455;-49
2023/04/14 01:58:46;;;;;;;16.30;15.00;;;;;;;2.44;100.00;101054.81;5052373;28;20836;-48
2023/04/14 02:01:15;;;;;;;16.10;15.10;;;;;;;2.42;100.00;101061.19;5052600;28;20562;-49
2023/04/14 02:03:46;;;;;;;17.50;16.23;;;;;;;2.39;100.00;101069.34;5052553;28;20756;-53
2023/04/14 02:06:16;;;;;;;17.27;16.10;;;;;;;2.39;100.00;101074.63;5052424;28;20818;-51
2023/04/14 02:08:44;;;;;;;16.73;15.30;;;;;;;2.36;100.00;101065.19;5039611;28;20427;-48
2023/04/14 02:11:14;;;;;;;17.87;16.47;;;;;;;2.33;100.00;101056.75;5052473;28;20423;-47
2023/04/14 02:13:43;;;;;;;15.93;14.63;;;;;;;2.32;100.00;101057.69;5052701;28;20519;-45
2023/04/14 02:16:12;;;;;;;17.07;15.83;;;;;;;2.29;100.00;101056.19;5052469;28;20488;-45
2023/04/14 02:18:41;;;;;;;17.13;15.70;;;;;;;2.27;100.00;101068.63;5051905;28;20475;-49
2023/04/14 02:21:13;;;;;;;16.57;15.37;;;;;;;2.27;100.00;101065.19;5052602;28;20467;-48
2023/04/14 02:23:41;;;;;;;16.80;15.50;;;;;;;2.22;100.00;101074.31;5052260;28;20442;-50
2023/04/14 02:26:12;;;;;;;19.17;17.53;;;;;;;2.22;100.00;101078.72;5052731;28;20455;-46
2023/04/14 02:28:46;;;;;;;18.07;16.60;;;;;;;2.18;100.00;101075.53;5052081;28;20481;-51
2023/04/14 02:31:20;;;;;;;15.67;14.63;;;;;;;2.14;100.00;101078.56;5052715;28;20813;-48
2023/04/14 02:33:52;;;;;;;17.10;15.80;;;;;;;2.14;100.00;101083.84;5052374;28;20424;-51
2023/04/14 02:36:27;;;;;;;16.60;15.13;;;;;;;2.11;100.00;101070.94;5052518;28;20447;-45
2023/04/14 02:38:58;;;;;;;16.40;15.40;;;;;;;2.05;100.00;101077.59;5051827;28;20427;-46
2023/04/14 02:41:28;;;;;;;18.10;16.80;;;;;;;2.03;100.00;101076.06;5052550;28;21006;-46
2023/04/14 02:44:03;;;;;;;16.63;15.30;;;;;;;1.99;100.00;101085.16;5052396;28;20971;-48
2023/04/14 02:46:35;;;;;;;19.77;18.13;;;;;;;2.00;100.00;101077.13;5052572;28;20461;-45
2023/04/14 02:49:05;;;;;;;18.40;17.00;;;;;;;2.03;100.00;101078.69;5051832;28;20508;-50
2023/04/14 02:51:35;;;;;;;22.47;20.60;;;;;;;2.11;100.00;101082.31;5052125;28;20438;-52
2023/04/14 02:54:05;;;;;;;22.23;19.13;;;;;;;2.10;100.00;101085.06;5052290;28;20437;-49
2023/04/14 02:56:34;;;;;;;17.80;16.57;;;;;;;2.09;100.00;101083.41;5051720;28;20458;-48
2023/04/14 02:59:03;;;;;;;18.80;17.30;;;;;;;2.05;100.00;101085.47;5051439;28;20474;-45
2023/04/14 03:01:32;;;;;;;19.13;17.67;;;;;;;2.07;100.00;101091.44;5051503;28;21193;-45
2023/04/14 03:04:01;;;;;;;17.70;16.40;;;;;;;2.04;100.00;101086.44;5052335;28;20514;-47
2023/04/14 03:06:30;;;;;;;17.30;16.00;;;;;;;2.03;100.00;101082.13;5052156;28;20545;-45
2023/04/14 03:09:00;;;;;;;17.67;16.10;;;;;;;2.01;100.00;101078.81;5051489;28;20451;-48
2023/04/14 03:11:29;;;;;;;19.00;17.10;;;;;;;1.97;100.00;101072.13;5052148;28;20450;-45
2023/04/14 03:13:59;;;;;;;16.43;15.10;;;;;;;1.96;100.00;101077.53;5052097;28;20427;-46
2023/04/14 03:16:29;;;;;;;18.83;17.13;;;;;;;1.93;100.00;101078.66;5051686;28;20465;-45
2023/04/14 03:18:58;;;;;;;17.50;16.03;;;;;;;1.91;100.00;101082.38;5051780;28;20463;-50
2023/04/14 03:21:28;;;;;;;19.80;18.17;;;;;;;1.86;100.00;101082.75;5044404;28;20471;-46
2023/04/14 03:23:59;;;;;;;18.27;16.67;;;;;;;1.86;100.00;101092.44;5051961;28;20423;-44
2023/04/14 03:26:30;;;;;;;18.13;16.83;;;;;;;1.83;100.00;101087.44;5051726;28;20454;-45
2023/04/14 03:29:00;;;;;;;19.73;17.80;;;;;;;1.80;100.00;101088.53;5052098;28;20462;-48
2023/04/14 03:31:32;;;;;;;20.93;19.10;;;;;;;1.79;100.00;101092.16;5051369;28;21052;-47
2023/04/14 03:34:02;;;;;;;20.00;18.13;;;;;;;1.78;100.00;101098.38;5051721;28;20477;-47
2023/04/14 03:36:31;;;;;;;21.47;19.33;;;;;;;1.83;100.00;101092.69;5055462;28;20464;-46
2023/04/14 03:39:02;;;;;;;19.00;17.30;;;;;;;1.82;100.00;101094.53;5055744;28;20442;-46
2023/04/14 03:41:33;;;;;;;20.63;18.63;;;;;;;1.79;100.00;101089.53;5054854;28;21074;-49
2023/04/14 03:44:03;;;;;;;20.10;18.10;;;;;;;1.76;100.00;101096.84;5055688;28;20423;-45
2023/04/14 03:46:31;;;;;;;20.47;18.67;;;;;;;1.73;100.00;101099.72;5055398;28;20479;-45
2023/04/14 03:49:01;;;;;;;22.73;19.83;;;;;;;1.67;100.00;101096.66;5055430;28;20925;-47
2023/04/14 03:51:32;;;;;;;19.87;18.37;;;;;;;1.65;100.00;101103.00;5050071;28;20490;-47
2023/04/14 03:54:02;;;;;;;19.17;17.47;;;;;;;1.62;100.00;101098.84;5055717;28;20435;-45
2023/04/14 03:56:36;;;;;;;20.33;18.73;;;;;;;1.61;100.00;101101.63;5055262;28;20454;-46
2023/04/14 03:59:06;;;;;;;18.67;17.17;;;;;;;1.60;100.00;101098.16;5055010;28;20506;-46
2023/04/14 04:01:38;;;;;;;22.73;20.70;;;;;;;1.62;100.00;101104.09;5054851;28;20561;-45
2023/04/14 04:04:07;;;;;;;21.57;19.47;;;;;;;1.61;100.00;101110.31;5055488;28;20485;-46
2023/04/14 04:06:36;;;;;;;21.57;19.30;;;;;;;1.63;100.00;101110.19;5055189;28;20546;-49
2023/04/14 04:09:06;;;;;;;22.53;20.23;;;;;;;1.64;100.00;101114.50;5055275;28;20457;-45
2023/04/14 04:11:35;;;;;;;22.07;19.97;;;;;;;1.68;100.00;101119.34;5054618;28;20439;-45
2023/04/14 04:14:05;;;;;;;23.30;20.87;;;;;;;1.72;100.00;101122.56;5055271;28;20423;-51
2023/04/14 04:16:35;;;;;;;21.03;19.03;;;;;;;1.70;100.00;101118.41;5055064;28;20545;-46
2023/04/14 04:19:06;;;;;;;21.07;19.30;;;;;;;1.67;100.00;101128.19;5055037;28;20435;-46
2023/04/14 04:21:36;;;;;;;20.90;19.10;;;;;;;1.65;100.00;101126.66;5053156;28;20478;-47
2023/04/14 04:24:07;;;;;;;22.00;20.00;;;;;;;1.62;100.00;101127.75;5054659;28;20423;-46
2023/04/14 04:26:35;;;;;;;21.50;19.60;;;;;;;1.61;100.00;101131.34;5055073;28;20968;-46
2023/04/14 04:29:04;;;;;;;21.93;19.73;;;;;;;1.64;100.00;101138.97;5054755;28;20486;-50
2023/04/14 04:31:33;;;;;;;24.43;22.20;;;;;;;1.70;100.00;101139.44;5053683;28;20509;-44
2023/04/14 04:34:02;;;;;;;22.87;20.37;;;;;;;1.73;100.00;101142.63;5054409;28;20490;-45
2023/04/14 04:36:31;;;;;;;27.37;24.67;;;;;;;1.79;100.00;101149.16;5054549;28;20554;-46
2023/04/14 04:38:59;;;;;;;26.47;23.87;;;;;;;1.83;100.00;101145.28;5054669;28;20435;-47
2023/04/14 04:41:30;;;;;;;26.30;23.67;;;;;;;1.87;100.00;101154.59;5053605;28;20471;-46
2023/04/14 04:43:58;;;;;;;25.07;22.90;;;;;;;1.92;100.00;101152.41;5054716;28;20446;-48
2023/04/14 04:46:50;;;;;;;27.90;25.03;;;;;;;1.99;100.00;101159.66;5053895;28;20984;-45
2023/04/14 04:49:17;;;;;;;28.23;25.13;;;;;;;2.03;100.00;101161.03;5054047;28;20424;-44
2023/04/14 04:51:45;;;;;;;28.93;26.13;;;;;;;2.06;100.00;101160.78;5054527;28;20428;-44
2023/04/14 04:54:13;;;;;;;38.83;26.80;;;;;;;2.07;100.00;101161.63;5054190;28;20770;-46
2023/04/14 04:56:42;;;;;;;49.23;29.20;;;;;;;2.09;100.00;101168.41;5054876;28;20851;-47
2023/04/14 04:59:10;;;;;;;63.30;28.90;;;;;;;2.11;100.00;101171.75;5053454;28;20435;-47
2023/04/14 05:01:38;;;;;;;45.27;28.10;;;;;;;2.17;100.00;101165.13;5053992;28;20450;-47
2023/04/14 05:04:06;;;;;;;45.57;28.47;;;;;;;2.23;100.00;101164.59;5054042;28;20446;-47
2023/04/14 05:06:37;;;;;;;219.83;36.40;;;;;;;2.28;100.00;101169.44;5053986;28;20459;-47
2023/04/14 05:09:05;;;;;;;164.27;36.67;;;;;;;2.36;100.00;101169.63;5054006;28;20419;-44
2023/04/14 05:11:33;;;;;;;218.43;46.33;;;;;;;2.43;100.00;101174.22;5053105;28;20471;-47
2023/04/14 05:14:03;;;;;;;139.30;36.63;;;;;;;2.55;100.00;101178.41;5053568;28;20435;-49
2023/04/14 05:16:30;;;;;;;205.60;40.00;;;;;;;2.68;100.00;101173.75;5053760;28;20474;-49
2023/04/14 05:18:59;;;;;;;156.90;38.33;;;;;;;2.82;100.00;101187.47;5053736;28;20783;-46
2023/04/14 05:21:27;;;;;;;114.57;35.00;;;;;;;2.97;100.00;101183.50;5052766;28;20487;-44
2023/04/14 05:23:54;;;;;;;94.63;30.13;;;;;;;3.12;100.00;101179.47;5053309;28;20475;-48
2023/04/14 05:26:22;;;;;;;133.80;35.87;;;;;;;3.25;100.00;101182.69;5053946;28;20462;-48
2023/04/14 05:29:11;;;;;;;91.27;29.53;;;;;;;3.44;100.00;101185.31;5053021;28;20442;-46
2023/04/14 05:31:39;;;;;;;212.63;38.73;;;;;;;3.55;100.00;101174.63;5053303;28;20435;-46
2023/04/14 05:34:07;;;;;;;175.77;33.43;;;;;;;3.70;100.00;101181.09;5053589;28;20478;-47
2023/04/14 05:36:34;;;;;;;111.40;27.93;;;;;;;3.84;100.00;101172.75;5053379;28;20451;-50
2023/04/14 05:39:02;;;;;;;268.80;39.20;;;;;;;3.98;100.00;101178.53;5053257;28;20518;-47
2023/04/14 05:41:30;;;;;;;317.50;45.03;;;;;;;4.10;100.00;101175.59;5052466;28;20467;-45
2023/04/14 05:43:57;;;;;;;128.40;30.70;;;;;;;4.23;100.00;101170.00;5053505;28;20474;-45
2023/04/14 05:46:26;;;;;;;242.37;41.00;;;;;;;4.38;100.00;101174.66;5053253;28;20455;-49
2023/04/14 05:48:55;;;;;;;123.80;30.03;;;;;;;4.56;100.00;101171.22;5053481;28;20435;-47
2023/04/14 05:51:23;;;;;;;158.80;35.93;;;;;;;4.79;100.00;101173.31;5049535;28;20463;-48
2023/04/14 05:53:51;;;;;;;178.83;33.00;;;;;;;5.01;100.00;101180.81;5053594;28;20445;-45
2023/04/14 05:56:19;;;;;;;138.93;30.33;;;;;;;5.14;100.00;101172.50;5053193;28;20451;-47
2023/04/14 05:58:47;;;;;;;135.47;27.47;;;;;;;5.30;100.00;101177.09;5052499;28;20485;-46
2023/04/14 06:01:15;;;;;;;151.10;31.13;;;;;;;5.36;100.00;101173.84;5052120;28;20463;-50
2023/04/14 06:03:44;;;;;;;70.80;22.70;;;;;;;5.49;100.00;101176.94;5052650;28;20518;-46
2023/04/14 06:06:12;;;;;;;245.57;46.07;;;;;;;5.44;100.00;101185.34;5052832;28;20956;-46
2023/04/14 06:08:40;;;;;;;88.77;28.90;;;;;;;5.74;100.00;101175.31;5052979;28;20431;-47
2023/04/14 06:11:08;;;;;;;128.93;30.43;;;;;;;6.01;100.00;101181.31;5052041;28;20467;-47
2023/04/14 06:13:35;;;;;;;74.77;23.60;;;;;;;6.07;100.00;101177.22;5052365;28;20427;-45
2023/04/14 06:16:03;;;;;;;155.67;30.53;;;;;;;6.32;100.00;101184.31;5052470;28;20493;-48
2023/04/14 06:18:31;;;;;;;105.80;21.90;;;;;;;6.46;100.00;101177.56;5052502;28;20508;-45
2023/04/14 06:21:01;;;;;;;160.37;29.20;;;;;;;6.73;100.00;101180.00;5049479;28;21011;-45
2023/04/14 06:23:30;;;;;;;121.87;24.93;;;;;;;6.92;100.00;101173.59;5052302;28;20482;-46
2023/04/14 06:25:58;;;;;;;194.07;34.63;;;;;;;7.09;100.00;101172.63;5052360;28;20442;-49
2023/04/14 06:28:25;;;;;;;113.63;25.63;;;;;;;7.10;100.00;101169.81;5052601;28;20420;-45
2023/04/14 06:30:53;;;;;;;143.73;24.80;;;;;;;7.30;100.00;101169.50;5052028;28;20812;-47
2023/04/14 06:33:21;;;;;;;85.70;25.23;;;;;;;7.33;100.00;101180.59;5052299;28;20504;-45
2023/04/14 06:35:48;;;;;;;259.13;46.87;;;;;;;7.39;100.00;101169.34;5052322;28;20816;-47
2023/04/14 06:38:17;;;;;;;65.47;18.63;;;;;;;7.62;100.00;101169.47;5052427;28;20451;-45
2023/04/14 06:40:45;;;;;;;55.27;20.60;;;;;;;7.63;100.00;101171.16;5051730;28;20558;-45
2023/04/14 06:43:13;;;;;;;56.00;20.10;;;;;;;7.74;100.00;101158.38;5051778;28;20474;-49
2023/04/14 06:45:41;;;;;;;30.93;19.10;;;;;;;7.94;100.00;101168.63;5052324;28;20466;-50
2023/04/14 06:48:10;;;;;;;28.43;18.87;;;;;;;8.27;100.00;101172.88;5052346;28;20964;-51
2023/04/14 06:50:38;;;;;;;72.63;24.23;;;;;;;8.65;100.00;101168.59;5049480;28;20544;-47
2023/04/14 06:53:06;;;;;;;98.40;23.73;;;;;;;8.72;100.00;101167.69;5051918;28;20422;-45
2023/04/14 06:55:36;;;;;;;28.63;22.27;;;;;;;8.84;100.00;101158.31;5052169;28;20458;-46
2023/04/14 06:58:03;;;;;;;22.57;20.30;;;;;;;9.16;100.00;101167.97;5051725;28;20451;-52
2023/04/14 07:00:31;;;;;;;63.07;28.17;;;;;;;9.59;100.00;101165.63;5051464;28;20463;-51
2023/04/14 07:02:59;;;;;;;21.17;19.97;;;;;;;10.10;100.00;101156.78;5051612;28;20477;-53
2023/04/14 07:05:27;;;;;;;21.37;20.07;;;;;;;10.77;100.00;101156.66;5051996;28;20489;-48
2023/04/14 07:07:54;;;;;;;21.00;19.90;;;;;;;11.08;100.00;101150.03;5051718;28;20649;-49
2023/04/14 07:10:22;;;;;;;20.40;19.40;;;;;;;11.39;100.00;101162.22;5055075;28;20457;-46
2023/04/14 07:12:51;;;;;;;20.67;19.67;;;;;;;11.54;100.00;101157.63;5056027;28;20431;-46
2023/04/14 07:15:19;;;;;;;20.30;19.30;;;;;;;11.61;100.00;101147.84;5055678;28;20431;-46
2023/04/14 07:17:47;;;;;;;18.67;17.83;;;;;;;11.47;100.00;101154.91;5055784;28;20816;-49
2023/04/14 07:20:15;;;;;;;19.70;18.60;;;;;;;11.54;100.00;101161.16;5055121;28;20549;-48
2023/04/14 07:22:42;;;;;;;19.20;18.10;;;;;;;11.55;100.00;101157.47;5055324;28;20431;-48
2023/04/14 07:25:10;;;;;;;19.90;19.00;;;;;;;11.38;100.00;101157.94;5055566;28;20431;-50
2023/04/14 07:27:38;;;;;;;20.23;19.03;;;;;;;11.28;100.00;101150.22;5055393;28;20451;-47
2023/04/14 07:30:18;;;;;;;19.43;18.37;;;;;;;11.07;100.00;101159.06;5055098;28;20455;-46
2023/04/14 07:32:46;;;;;;;17.87;16.77;;;;;;;11.05;100.00;101165.63;5055341;28;20431;-52
2023/04/14 07:35:14;;;;;;;19.27;17.77;;;;;;;10.94;100.00;101166.09;5055201;28;20431;-48
2023/04/14 07:37:42;;;;;;;19.80;18.80;;;;;;;10.96;100.00;101172.88;5055041;28;20455;-49
2023/04/14 07:40:10;;;;;;;18.80;17.80;;;;;;;10.74;100.00;101171.19;5054875;28;20554;-50
2023/04/14 07:42:38;;;;;;;19.17;18.07;;;;;;;10.55;100.00;101169.09;5055077;28;20431;-49
2023/04/14 07:45:06;;;;;;;19.03;17.73;;;;;;;10.21;100.00;101167.03;5055203;28;20525;-51
2023/04/14 07:47:36;;;;;;;17.73;16.67;;;;;;;10.03;100.00;101177.19;5055151;28;20451;-49
2023/04/14 07:50:04;;;;;;;18.63;17.53;;;;;;;10.09;100.00;101173.78;5051890;28;20459;-46
2023/04/14 07:52:32;;;;;;;17.93;16.93;;;;;;;10.31;100.00;101172.06;5055072;28;20439;-51
2023/04/14 07:54:59;;;;;;;18.60;17.50;;;;;;;10.57;100.00;101175.09;5054887;28;20435;-46
2023/04/14 07:57:27;;;;;;;18.30;17.17;;;;;;;10.67;100.00;101170.28;5054837;28;20458;-49
2023/04/14 07:59:55;;;;;;;17.23;16.10;;;;;;;10.50;100.00;101172.34;5054493;28;20516;-51
2023/04/14 08:02:22;;;;;;;17.30;16.10;;;;;;;10.38;100.00;101175.66;5053519;28;20485;-47
2023/04/14 08:04:52;;;;;;;18.00;16.70;;;;;;;10.42;100.00;101174.28;5054571;28;20479;-50
2023/04/14 08:07:20;;;;;;;17.17;16.23;;;;;;;10.53;100.00;101171.97;5054657;28;20453;-45
2023/04/14 08:09:49;;;;;;;16.30;15.30;;;;;;;10.43;100.00;101176.75;5054444;28;20469;-46
2023/04/14 08:12:17;;;;;;;19.10;17.90;;;;;;;10.37;100.00;101185.50;5054425;28;20470;-48
2023/04/14 08:14:46;;;;;;;17.50;16.70;;;;;;;10.16;100.00;101179.22;5054650;28;20437;-49
2023/04/14 08:17:14;;;;;;;16.80;15.90;;;;;;;10.24;100.00;101169.34;5054377;28;20550;-48
2023/04/14 08:19:41;;;;;;;16.63;15.53;;;;;;;10.17;100.00;101179.06;5053919;28;20859;-48
2023/04/14 08:22:11;;;;;;;16.00;15.00;;;;;;;10.36;100.00;101177.69;5053903;28;20952;-49
2023/04/14 08:24:39;;;;;;;14.93;14.03;;;;;;;10.55;100.00;101169.94;5054526;28;20497;-45
2023/04/14 08:27:07;;;;;;;15.20;14.00;;;;;;;10.74;100.00;101178.38;5054241;28;20451;-52
2023/04/14 08:29:34;;;;;;;16.27;15.00;;;;;;;10.79;100.00;101175.97;5053891;28;20868;-46
2023/04/14 08:32:03;;;;;;;15.27;14.37;;;;;;;10.86;100.00;101174.22;5054244;28;20439;-46
2023/04/14 08:34:31;;;;;;;16.73;15.73;;;;;;;10.89;100.00;101180.00;5054427;28;20494;-47
2023/04/14 08:36:59;;;;;;;16.90;15.70;;;;;;;10.93;100.00;101175.94;5054224;28;20456;-48
2023/04/14 08:39:28;;;;;;;17.07;15.73;;;;;;;11.04;100.00;101177.28;5053736;28;20428;-47
2023/04/14 08:41:56;;;;;;;15.53;14.73;;;;;;;11.13;100.00;101170.81;5053986;28;20436;-50
2023/04/14 08:44:24;;;;;;;17.27;15.97;;;;;;;11.25;100.00;101171.97;5053733;28;20562;-52
2023/04/14 08:46:52;;;;;;;16.07;15.00;;;;;;;11.27;100.00;101166.44;5054315;28;20451;-45
2023/04/14 08:49:28;;;;;;;15.83;14.80;;;;;;;11.38;100.00;101176.63;5052617;28;20485;-45
2023/04/14 08:51:58;;;;;;;15.27;14.47;;;;;;;11.33;100.00;101168.34;5053739;28;20430;-48
2023/04/14 08:54:28;;;;;;;15.80;14.83;;;;;;;11.63;100.00;101169.84;5053885;28;20427;-52
2023/04/14 08:56:57;;;;;;;16.27;15.30;;;;;;;11.68;100.00;101171.94;5053680;28;20474;-48
2023/04/14 08:59:25;;;;;;;16.23;15.23;;;;;;;11.64;100.00;101175.00;5053325;28;20435;-46
2023/04/14 09:01:55;;;;;;;15.50;14.60;;;;;;;11.76;100.00;101169.16;5053534;28;20454;-50
2023/04/14 09:04:23;;;;;;;16.40;15.40;;;;;;;11.97;100.00;101177.13;5053788;28;20817;-50
2023/04/14 09:06:52;;;;;;;15.83;14.77;;;;;;;12.15;100.00;101172.13;5053450;28;20909;-45
2023/04/14 09:09:21;;;;;;;15.47;14.30;;;;;;;12.23;100.00;101177.31;5052758;28;20439;-45
2023/04/14 09:11:51;;;;;;;15.33;13.93;;;;;;;12.38;100.00;101174.50;5053442;28;20442;-49
2023/04/14 09:14:20;;;;;;;14.97;13.80;;;;;;;12.57;100.00;101176.47;5053286;28;20890;-49
2023/04/14 09:16:51;;;;;;;14.23;13.30;;;;;;;12.64;100.00;101179.97;5053186;28;20467;-51
2023/04/14 09:19:20;;;;;;;14.50;13.80;;;;;;;12.66;100.00;101177.94;5052862;28;20423;-49
2023/04/14 09:21:48;;;;;;;15.13;14.07;;;;;;;12.73;100.00;101178.78;5052728;28;20522;-49
2023/04/14 09:24:27;;;;;;;13.73;13.03;;;;;;;12.97;100.00;101178.25;5053351;28;20475;-49
2023/04/14 09:27:02;;;;;;;14.20;13.33;;;;;;;13.15;100.00;101186.56;5053041;28;20530;-46
2023/04/14 09:29:30;;;;;;;14.87;13.90;;;;;;;13.20;100.00;101177.94;5052597;28;20482;-50
2023/04/14 09:31:58;;;;;;;13.70;12.70;;;;;;;13.20;100.00;101170.72;5051741;28;20937;-46
2023/04/14 09:34:26;;;;;;;12.43;11.53;;;;;;;13.27;100.00;101174.22;5052857;28;20836;-47
2023/04/14 09:37:03;;;;;;;12.13;11.53;;;;;;;13.35;100.00;101181.25;5053128;28;20466;-45
2023/04/14 09:39:31;;;;;;;13.10;11.90;;;;;;;13.39;100.00;101169.09;5052329;28;20936;-43
2023/04/14 09:42:00;;;;;;;11.23;10.43;;;;;;;13.55;100.00;101171.38;5052583;28;20774;-47
2023/04/14 09:44:28;;;;;;;10.57;10.07;;;;;;;13.47;100.00;101181.50;5052605;28;20471;-55
2023/04/14 09:46:57;;;;;;;10.70;9.90;;;;;;;13.50;100.00;101163.13;5052820;28;20447;-54
2023/04/14 09:49:25;;;;;;;10.90;10.10;;;;;;;13.34;100.00;101176.94;5053511;28;20428;-48
2023/04/14 09:51:54;;;;;;;11.07;10.37;;;;;;;13.42;100.00;101166.00;5042126;28;20463;-55
2023/04/14 09:54:25;;;;;;;11.20;10.60;;;;;;;13.59;100.00;101169.13;5053208;28;20438;-47
2023/04/14 09:56:53;;;;;;;11.27;10.50;;;;;;;13.67;100.00;101169.75;5053209;28;20472;-53
2023/04/14 09:59:33;;;;;;;10.70;9.90;;;;;;;13.74;100.00;101165.19;5052957;28;20424;-46
2023/04/14 10:02:04;;;;;;;10.67;10.17;;;;;;;13.89;95.15;101162.28;5052301;28;20459;-55
2023/04/14 10:04:32;;;;;;;10.90;10.30;;;;;;;13.89;92.25;101162.28;5052810;28;20485;-50
2023/04/14 10:07:00;;;;;;;13.33;9.40;;;;;;;14.05;91.18;101166.41;5053158;28;20483;-50
2023/04/14 10:09:29;;;;;;;10.60;9.53;;;;;;;13.84;84.13;101164.78;5052731;28;20434;-51
2023/04/14 10:12:08;;;;;;;9.33;8.37;;;;;;;14.08;84.27;101165.97;5052092;28;20513;-50
2023/04/14 10:14:38;;;;;;;9.10;8.50;;;;;;;14.05;86.28;101166.41;5053170;28;20535;-49
2023/04/14 10:17:06;;;;;;;9.40;8.80;;;;;;;14.19;84.79;101162.66;5052842;28;20828;-48
2023/04/14 10:19:36;;;;;;;11.80;9.30;;;;;;;14.46;88.02;101166.94;5052836;28;20431;-52
2023/04/14 10:22:05;;;;;;;9.30;8.63;;;;;;;14.22;84.03;101172.97;5052035;28;20501;-48
2023/04/14 10:24:33;;;;;;;9.23;8.40;;;;;;;14.49;91.15;101174.56;5052677;28;20494;-53
2023/04/14 10:27:03;;;;;;;8.50;7.90;;;;;;;14.50;84.72;101172.72;5052795;28;20458;-46
2023/04/14 10:29:32;;;;;;;7.77;7.27;;;;;;;14.21;84.90;101180.22;5052686;28;20428;-52
2023/04/14 10:32:05;;;;;;;8.83;8.03;;;;;;;14.09;82.33;101181.88;5043078;28;20466;-50
2023/04/14 10:34:33;;;;;;;7.73;7.20;;;;;;;14.48;87.91;101178.31;5052494;28;20477;-47
2023/04/14 10:37:14;;;;;;;10.90;8.27;;;;;;;14.46;86.65;101175.00;5052667;28;20893;-48
2023/04/14 10:39:42;;;;;;;8.80;8.13;;;;;;;14.57;90.34;101171.69;5052832;28;20477;-51
2023/04/14 10:42:10;;;;;;;11.50;7.33;;;;;;;14.52;82.28;101174.16;5047047;28;20463;-53
2023/04/14 10:44:38;;;;;;;10.23;7.90;;;;;;;14.51;88.38;101174.38;5052392;28;20438;-53
2023/04/14 10:47:07;;;;;;;8.43;7.67;;;;;;;14.30;85.19;101170.91;5052312;28;20447;-55
2023/04/14 10:49:37;;;;;;;8.03;7.33;;;;;;;14.39;87.48;101160.78;5052418;28;20459;-50
2023/04/14 10:52:06;;;;;;;8.23;7.40;;;;;;;14.34;84.22;101168.63;5051860;28;20466;-47
2023/04/14 10:54:48;;;;;;;8.60;7.90;;;;;;;14.21;81.70;101160.59;5052492;28;20438;-54
2023/04/14 10:57:17;;;;;;;7.60;7.10;;;;;;;14.21;82.55;101157.91;5052200;28;20447;-55
2023/04/14 10:59:46;;;;;;;7.87;7.30;;;;;;;14.19;80.66;101163.47;5052018;28;20831;-46
2023/04/14 11:02:24;;;;;;;9.50;8.80;;;;;;;14.27;85.23;101152.53;5043405;28;21037;-49
2023/04/14 11:05:03;;;;;;;7.77;7.00;;;;;;;13.99;86.67;101159.19;5052415;28;20431;-47
2023/04/14 11:07:36;;;;;;;8.43;7.20;;;;;;;14.14;91.51;101159.78;5052119;28;20457;-50
2023/04/14 11:10:26;;;;;;;7.80;7.10;;;;;;;14.14;89.76;101159.78;5051961;28;20442;-49
2023/04/14 11:13:02;;;;;;;8.37;7.27;;;;;;;14.24;86.41;101157.50;5051368;28;20459;-44
2023/04/14 11:15:43;;;;;;;9.83;6.90;;;;;;;14.05;85.24;101161.88;5052431;28;20425;-47
2023/04/14 11:18:14;;;;;;;6.23;5.73;;;;;;;14.18;84.30;101158.34;5052190;28;20489;-50